Time;durP1;ratioP1;P1;durP2;ratioP2;P2;SDS_P1;SDS_P2;PMS_P1;PMS_P2;Temp;Humidity;BMP_temperature;BMP_pressure;BME280_temperature;BME280_humidity;BME280_pressure;Samples;Min_cycle;Max_cycle;Signal;HPM_P1;HPM_P2
2022/06/16 00:00:21;;;;;;;6.70;5.30;;;;;;;10.36;69.54;99791.36;436686;1273;146120;-61
2022/06/16 00:11:16;;;;;;;7.10;6.00;;;;;;;10.30;69.85;99793.89;430150;1273;147407;-62
2022/06/16 00:21:32;;;;;;;9.40;6.90;;;;;;;10.23;70.09;99790.39;430612;1273;143160;-61
2022/06/16 00:31:54;;;;;;;9.50;8.50;;;;;;;10.18;70.21;99785.45;429213;1272;143158;-61
2022/06/16 00:42:20;;;;;;;7.80;7.00;;;;;;;10.13;70.65;99773.84;431165;1273;143928;-62
2022/06/16 00:52:42;;;;;;;11.90;8.30;;;;;;;10.11;70.84;99762.92;429931;1273;142710;-60
2022/06/16 01:03:04;;;;;;;8.30;7.10;;;;;;;10.09;70.92;99753.06;430007;1272;143778;-60
2022/06/16 01:13:43;;;;;;;12.20;7.00;;;;;;;10.07;71.15;99753.86;429963;1273;146317;-60
2022/06/16 01:24:47;;;;;;;11.70;7.40;;;;;;;10.05;71.20;99745.47;430906;1273;142754;-61
2022/06/16 01:35:16;;;;;;;6.40;5.50;;;;;;;9.96;71.05;99751.25;430203;1273;143726;-59
2022/06/16 01:45:45;;;;;;;7.00;6.30;;;;;;;9.92;71.23;99750.06;431517;1272;141560;-60
2022/06/16 01:56:14;;;;;;;7.20;6.50;;;;;;;9.86;71.49;99748.52;430923;1272;142344;-60
2022/06/16 02:06:38;;;;;;;7.50;6.30;;;;;;;9.84;71.73;99734.08;432288;1272;143438;-60
2022/06/16 02:17:01;;;;;;;8.60;6.10;;;;;;;9.82;71.68;99731.23;430405;1273;146283;-60
2022/06/16 02:27:23;;;;;;;8.00;6.70;;;;;;;10.06;71.88;99725.79;430144;1271;145765;-62
2022/06/16 02:38:03;;;;;;;8.80;6.80;;;;;;;10.55;71.57;99725.86;430319;1272;147542;-61
2022/06/16 02:48:34;;;;;;;10.80;9.20;;;;;;;11.04;70.94;99729.48;430200;1273;145945;-61
2022/06/16 02:59:01;;;;;;;9.20;8.30;;;;;;;11.49;70.08;99723.42;429647;1273;142762;-60
2022/06/16 03:09:23;;;;;;;7.70;7.00;;;;;;;11.87;69.27;99721.29;430370;1273;148170;-60
2022/06/16 03:19:45;;;;;;;11.80;8.70;;;;;;;12.13;68.66;99724.83;430205;1273;145347;-62
2022/06/16 03:30:09;;;;;;;9.70;7.60;;;;;;;12.24;68.10;99725.17;431754;1273;185521;-60
2022/06/16 03:40:30;;;;;;;9.20;8.20;;;;;;;12.43;67.57;99725.99;430795;1273;142817;-60
2022/06/16 03:50:52;;;;;;;9.90;7.90;;;;;;;12.68;67.13;99717.05;432095;1273;143886;-61
2022/06/16 04:01:13;;;;;;;11.50;9.10;;;;;;;12.97;66.45;99713.23;430884;1273;143889;-61
2022/06/16 04:11:35;;;;;;;9.60;6.90;;;;;;;13.31;65.88;99711.31;429614;1273;142757;-60
2022/06/16 04:21:57;;;;;;;8.20;7.50;;;;;;;13.70;65.14;99708.33;430481;1273;142566;-60
2022/06/16 04:32:19;;;;;;;7.30;6.70;;;;;;;14.28;64.21;99695.63;429897;1272;143049;-60
2022/06/16 04:42:40;;;;;;;8.60;6.90;;;;;;;15.38;62.98;99688.15;430344;1273;147757;-61
2022/06/16 04:53:02;;;;;;;7.80;5.70;;;;;;;16.12;61.05;99688.09;430843;1273;145441;-60
2022/06/16 05:03:26;;;;;;;6.80;5.70;;;;;;;17.15;59.56;99681.89;430069;1272;189759;-61
2022/06/16 05:13:48;;;;;;;4.70;4.20;;;;;;;21.32;56.24;99670.27;431249;1273;145540;-58
2022/06/16 05:24:10;;;;;;;3.80;3.40;;;;;;;29.75;45.99;99657.85;431207;1273;147101;-61
2022/06/16 05:34:32;;;;;;;4.20;2.90;;;;;;;35.60;37.21;99642.66;430613;1272;146015;-62
2022/06/16 05:44:53;;;;;;;2.90;2.70;;;;;;;36.98;30.67;99633.38;431260;1273;145134;-62
2022/06/16 05:55:15;;;;;;;3.00;2.70;;;;;;;33.04;30.77;99627.26;430534;1273;141527;-60
2022/06/16 06:05:37;;;;;;;4.60;2.90;;;;;;;36.50;28.97;99628.33;429354;1273;140306;-59
2022/06/16 06:26:39;;;;;;;3.40;2.50;;;;;;;42.15;23.56;99618.55;432142;1272;145701;-62
2022/06/16 06:37:00;;;;;;;2.60;2.20;;;;;;;45.38;20.90;99616.00;430745;1272;141617;-61
2022/06/16 06:47:24;;;;;;;2.20;2.10;;;;;;;46.45;18.78;99607.63;430520;1272;142215;-62
2022/06/16 06:57:46;;;;;;;2.70;2.10;;;;;;;46.96;17.74;99598.39;430227;1273;141444;-62
2022/06/16 07:08:09;;;;;;;2.40;2.20;;;;;;;46.43;16.99;99591.59;429996;1273;143663;-61
2022/06/16 07:18:30;;;;;;;3.60;2.50;;;;;;;45.70;16.58;99579.73;431189;1270;142164;-62
2022/06/16 07:28:53;;;;;;;2.70;2.50;;;;;;;44.30;16.82;99574.06;430114;1273;142858;-63
2022/06/16 07:39:15;;;;;;;3.30;2.30;;;;;;;43.95;16.75;99571.13;430267;1273;142345;-63
2022/06/16 07:49:36;;;;;;;2.50;2.20;;;;;;;46.09;16.34;99565.75;440424;1273;144425;-62
2022/06/16 07:59:59;;;;;;;3.50;2.30;;;;;;;41.13;17.34;99559.90;440068;1272;143443;-61
2022/06/16 08:10:23;;;;;;;2.50;1.90;;;;;;;34.48;21.49;99553.05;429978;1273;142868;-62
2022/06/16 08:20:45;;;;;;;2.60;1.90;;;;;;;31.50;24.33;99555.79;430395;1273;141921;-60
2022/06/16 08:31:07;;;;;;;4.00;2.10;;;;;;;30.19;26.13;99551.04;432780;1273;397158;-61
2022/06/16 08:41:36;;;;;;;2.90;2.30;;;;;;;29.07;27.62;99556.63;430277;1272;145465;-61
2022/06/16 08:52:18;;;;;;;3.90;1.60;;;;;;;28.04;28.55;99553.77;430837;1272;142374;-61
2022/06/16 09:02:46;;;;;;;3.00;1.80;;;;;;;27.61;29.85;99550.55;446062;1272;142197;-63
2022/06/16 09:13:20;;;;;;;2.70;1.70;;;;;;;27.59;30.33;99550.19;446828;1272;142616;-62
2022/06/16 09:23:53;;;;;;;2.70;2.30;;;;;;;27.49;30.98;99536.40;430869;1273;141402;-64
2022/06/16 09:34:20;;;;;;;2.70;1.80;;;;;;;27.02;31.03;99534.52;430084;1273;142592;-59
2022/06/16 09:44:49;;;;;;;4.90;2.50;;;;;;;26.51;32.04;99528.41;430462;1273;145032;-60
2022/06/16 09:55:20;;;;;;;2.90;2.00;;;;;;;26.32;32.37;99526.52;430979;1273;199064;-61
2022/06/16 10:05:57;;;;;;;5.50;2.40;;;;;;;26.30;32.98;99521.55;432497;1273;141215;-61
2022/06/16 10:16:24;;;;;;;3.00;2.10;;;;;;;26.63;32.77;99512.98;431477;1273;141154;-61
2022/06/16 10:26:45;;;;;;;;;;;;;;;26.15;33.23;99505.02;431485;1273;145510;-64
2022/06/16 10:37:14;;;;;;;2.80;2.10;;;;;;;26.12;34.34;99504.60;431424;1273;130015;-62
2022/06/16 10:47:46;;;;;;;3.10;2.10;;;;;;;26.10;34.17;99502.89;431385;1273;146706;-62
2022/06/16 10:58:18;;;;;;;2.50;1.80;;;;;;;26.53;34.46;99503.61;431351;1273;147313;-62
2022/06/16 11:08:44;;;;;;;4.10;2.30;;;;;;;27.53;33.47;99505.83;430324;1273;145250;-63
2022/06/16 11:19:18;;;;;;;3.40;1.90;;;;;;;27.78;32.53;99500.08;431431;1273;142866;-62
2022/06/16 11:29:40;;;;;;;2.40;1.60;;;;;;;28.04;32.22;99492.94;428899;1273;143347;-62
2022/06/16 11:40:19;;;;;;;4.30;1.90;;;;;;;28.25;32.28;99477.55;430648;1273;141944;-61
2022/06/16 11:50:59;;;;;;;3.80;2.80;;;;;;;28.24;32.35;99474.53;432066;1273;141275;-62
2022/06/16 12:01:27;;;;;;;2.80;1.70;;;;;;;28.15;32.14;99456.81;430959;1273;141060;-61
2022/06/16 12:11:55;;;;;;;2.40;2.00;;;;;;;28.43;32.83;99445.79;431979;1273;141577;-62
2022/06/16 12:22:32;;;;;;;2.20;1.90;;;;;;;28.86;32.15;99426.16;430065;1273;141866;-60
2022/06/16 12:33:04;;;;;;;4.40;1.70;;;;;;;28.87;32.26;99414.51;436944;1273;141816;-61
2022/06/16 12:43:30;;;;;;;2.40;2.20;;;;;;;28.33;32.16;99398.88;445926;1273;142643;-62
2022/06/16 12:53:58;;;;;;;2.20;1.90;;;;;;;28.36;32.66;99389.39;430115;1273;142493;-61
2022/06/16 13:04:24;;;;;;;3.00;1.70;;;;;;;28.59;33.21;99376.11;430609;1273;144898;-63
2022/06/16 13:14:53;;;;;;;4.60;1.80;;;;;;;27.71;33.63;99347.46;431579;1273;145431;-62
2022/06/16 13:25:38;;;;;;;4.40;2.20;;;;;;;27.03;34.84;99329.03;430761;1273;145717;-62
2022/06/16 13:36:12;;;;;;;3.00;2.10;;;;;;;26.71;35.52;99322.92;430777;1273;184982;-62
2022/06/16 13:47:14;;;;;;;4.60;3.90;;;;;;;26.22;36.10;99330.21;431574;1273;143029;-62
2022/06/16 13:57:36;;;;;;;3.20;2.20;;;;;;;25.73;37.60;99320.17;430596;1272;141277;-61
2022/06/16 14:08:01;;;;;;;2.90;1.90;;;;;;;25.81;37.36;99305.95;430119;1273;143027;-63
2022/06/16 14:18:27;;;;;;;3.20;1.50;;;;;;;25.88;36.52;99301.36;435943;1273;142182;-62
2022/06/16 14:28:51;;;;;;;1.80;1.50;;;;;;;26.26;36.31;99314.25;442997;1272;142680;-61
2022/06/16 14:39:21;;;;;;;2.90;1.70;;;;;;;26.49;37.00;99302.27;433572;1273;141538;-62
2022/06/16 14:49:48;;;;;;;10.00;2.10;;;;;;;26.03;37.12;99331.98;435415;1274;141584;-63
2022/06/16 15:00:21;;;;;;;3.40;1.00;;;;;;;23.70;38.44;99384.45;447310;1273;142107;-61
2022/06/16 15:10:46;;;;;;;2.70;1.70;;;;;;;20.86;45.45;99374.23;444026;1273;144498;-62
2022/06/16 15:21:11;;;;;;;4.30;2.40;;;;;;;19.36;49.95;99419.79;444422;1270;141507;-62
2022/06/16 15:31:34;;;;;;;5.00;2.30;;;;;;;19.16;53.15;99411.59;439264;1272;142607;-64
2022/06/16 15:41:57;;;;;;;2.70;2.30;;;;;;;19.88;53.86;99390.52;441175;1273;140954;-61
2022/06/16 15:52:22;;;;;;;2.20;1.30;;;;;;;20.51;52.35;99384.60;438139;1273;141823;-60
2022/06/16 16:02:48;;;;;;;1.60;1.40;;;;;;;20.75;51.62;99388.84;433651;1273;144667;-61
2022/06/16 16:13:13;;;;;;;3.60;1.60;;;;;;;20.73;51.09;99365.36;447248;1273;142431;-62
2022/06/16 16:23:36;;;;;;;0.80;0.80;;;;;;;21.11;50.22;99363.31;444533;1272;142413;-62
2022/06/16 16:34:01;;;;;;;1.50;1.30;;;;;;;21.30;49.45;99362.73;447222;1273;141986;-62
2022/06/16 16:44:27;;;;;;;1.10;1.10;;;;;;;21.37;48.70;99383.09;445786;1273;142583;-62
2022/06/16 16:54:55;;;;;;;2.30;1.30;;;;;;;20.93;48.86;99416.71;447234;1273;141443;-60
2022/06/16 17:05:17;;;;;;;2.70;1.80;;;;;;;20.79;49.91;99441.94;441606;1273;142477;-62
2022/06/16 17:15:39;;;;;;;3.20;2.20;;;;;;;20.19;51.04;99464.17;447228;1272;142191;-62
2022/06/16 17:26:00;;;;;;;2.30;1.70;;;;;;;19.94;51.76;99495.52;446512;1272;143226;-63
2022/06/16 17:36:22;;;;;;;5.30;1.90;;;;;;;19.86;52.74;99517.88;434946;1273;141645;-62
2022/06/16 17:46:44;;;;;;;2.00;1.80;;;;;;;19.52;53.06;99511.91;431317;1273;142619;-62
2022/06/16 18:07:48;;;;;;;2.40;2.20;;;;;;;18.69;54.41;99522.16;432401;1273;142797;-61
2022/06/16 18:18:14;;;;;;;2.50;2.30;;;;;;;18.44;55.61;99528.54;433068;1273;141740;-61
2022/06/16 18:28:38;;;;;;;4.30;2.90;;;;;;;18.31;56.24;99539.54;431570;1273;142454;-62
2022/06/16 18:39:00;;;;;;;2.00;1.90;;;;;;;18.04;56.93;99536.38;431908;1273;141205;-62
2022/06/16 18:49:22;;;;;;;5.30;2.40;;;;;;;17.73;57.83;99550.13;432098;1273;199434;-62
2022/06/16 18:59:44;;;;;;;2.40;2.00;;;;;;;17.51;58.47;99559.09;431371;1273;142642;-63
2022/06/16 19:10:18;;;;;;;2.10;1.90;;;;;;;17.23;59.13;99563.23;431416;1273;143035;-61
2022/06/16 19:20:45;;;;;;;2.40;2.20;;;;;;;17.02;59.78;99577.65;429433;1273;188152;-62
2022/06/16 19:31:06;;;;;;;3.60;2.40;;;;;;;16.85;60.45;99584.89;431061;1273;143902;-61
2022/06/16 19:41:30;;;;;;;2.80;2.50;;;;;;;16.66;60.91;99597.83;431213;1273;149883;-61
2022/06/16 19:51:52;;;;;;;4.60;4.20;;;;;;;16.52;61.52;99599.80;431703;1273;141889;-62
2022/06/16 20:02:15;;;;;;;3.20;2.90;;;;;;;16.29;62.18;99608.16;430880;1273;144136;-63
2022/06/16 20:12:41;;;;;;;4.50;2.80;;;;;;;16.01;62.99;99616.45;431122;1273;143483;-63
2022/06/16 20:23:02;;;;;;;9.80;3.70;;;;;;;15.79;64.13;99612.40;431499;1273;142514;-61
2022/06/16 20:33:24;;;;;;;4.90;3.40;;;;;;;15.51;65.42;99617.27;432223;1273;223724;-61
2022/06/16 20:43:46;;;;;;;4.10;3.60;;;;;;;15.19;66.30;99616.59;431298;1273;145689;-61
2022/06/16 20:54:10;;;;;;;4.20;3.40;;;;;;;14.84;67.16;99607.39;430886;1272;142841;-61
2022/06/16 21:04:34;;;;;;;4.20;3.80;;;;;;;14.59;68.16;99614.34;430849;1273;147672;-61
2022/06/16 21:14:58;;;;;;;5.80;4.10;;;;;;;14.47;69.07;99629.20;431619;1273;153195;-59
2022/06/16 21:25:22;;;;;;;7.50;4.60;;;;;;;14.50;69.64;99635.26;431813;1273;143018;-61
2022/06/16 21:35:44;;;;;;;7.90;4.00;;;;;;;14.45;69.89;99638.73;431226;1273;141596;-60
2022/06/16 21:46:06;;;;;;;6.00;4.30;;;;;;;14.41;70.18;99648.11;430879;1273;141339;-61
2022/06/16 21:56:28;;;;;;;15.30;5.80;;;;;;;14.26;70.81;99660.80;431866;1273;142617;-61
2022/06/16 22:06:50;;;;;;;5.30;4.10;;;;;;;14.11;71.35;99676.14;431258;1272;143160;-60
2022/06/16 22:17:19;;;;;;;7.00;4.40;;;;;;;13.88;71.53;99671.91;431424;1273;141499;-61
2022/06/16 22:27:42;;;;;;;7.00;4.70;;;;;;;13.63;71.96;99676.45;433744;1273;143488;-60
2022/06/16 22:38:03;;;;;;;4.40;4.00;;;;;;;13.45;72.64;99681.96;432051;1273;142546;-61
2022/06/16 22:48:27;;;;;;;6.00;4.70;;;;;;;13.27;72.84;99673.28;431518;1273;142383;-61
2022/06/16 22:58:51;;;;;;;6.40;4.90;;;;;;;13.07;73.21;99668.08;430091;1273;142804;-63
2022/06/16 23:09:13;;;;;;;5.20;4.40;;;;;;;12.98;74.06;99674.15;430630;1273;200187;-62
2022/06/16 23:19:35;;;;;;;5.60;5.00;;;;;;;12.85;74.27;99676.31;431811;1273;142225;-61
2022/06/16 23:29:56;;;;;;;5.10;4.70;;;;;;;12.72;74.68;99671.59;431751;1273;143656;-61
2022/06/16 23:40:18;;;;;;;4.70;4.30;;;;;;;12.61;75.15;99669.44;431390;1273;186104;-62
2022/06/16 23:50:40;;;;;;;5.00;4.10;;;;;;;12.47;74.97;99669.32;430585;1273;189436;-61
